Terminal Aerodrome Forecast
Issued by NWS Cleveland, OH

Home | Current Version | Previous Version | Text Only | Print | Product List | Glossary Off
Versions: 1 2 3 4 5 6 7 8 9 10 11 12 13 14 15 16 17 18 19 20

306
FTUS41 KCLE 221956 AAA
TAFYNG
TAF AMD
KYNG 221956Z 2220/2318 25006KT P6SM VCSH SCT015 BKN100
     FM230600 VRB04KT 4SM BR OVC008
     FM231100 VRB03KT 2SM BR OVC005
     FM231300 23004KT 6SM BR OVC010=

USA.gov is the U.S. government's official web portal to all federal, state and local government web resources and services.